Dades meteomassalio
Diari Summary for Abril 3, 2017 Units:  English    Metric   Both
« Previous Day
Next Day »
Diari Semanal Mensual Anual Personalitzat
  Maxima: Minima: Mijana:
Temperatura: TemperatureC °F 6.1 °F 12.1 °F
Rosada: DewpointC °F 2.7 °F 4.2 °F
Humitat: Humidity % 35 % 60 %
Velocitat del vent: WindSpeedKMH mph 0.0 mph 9.5 mph
Racha vent: WindSpeedGustKMH mph - -
Vent:- - WSW
Pressio: PressurehPa in 1021.6 in -
Pluja: 0.0 in    
Historical Graphs
 
 
Tabular Data for Abril 3, 2017
Time Temperature Dew Point Pressure Wind Wind Speed Wind Gust Humidity Rainfall Rate (Hourly) solar Conditions
TemperatureC °F DewpointC °F PressurehPa in Calm     Humidity % HourlyPrecipMM in SolarRadiationWatts/m^2 W/m2 Conditions
00:00 10.2 °F 3.7 °F 1022.9 in West 20.4 mph 20.4 mph 64 % 0.0 in 0.0 W/m2 CLR
00:05 10.1 °F 3.8 °F 1023.2 in WNW 20.4 mph 20.4 mph 65 % 0.0 in 0.0 W/m2 CLR
00:10 10.1 °F 3.8 °F 1023.2 in WSW 22.2 mph 22.2 mph 65 % 0.0 in 0.0 W/m2 CLR
00:15 10.0 °F 3.7 °F 1023.2 in WSW 19.3 mph 19.3 mph 65 % 0.0 in 0.0 W/m2 CLR
00:20 10.0 °F 3.7 °F 1023.2 in West 24.1 mph 24.1 mph 65 % 0.0 in 0.0 W/m2 CLR
00:25 9.9 °F 3.7 °F 1023.2 in West 25.9 mph 25.9 mph 65 % 0.0 in 0.0 W/m2 CLR
00:30 9.9 °F 3.8 °F 1023.6 in West 16.7 mph 16.7 mph 66 % 0.0 in 0.0 W/m2 CLR
00:35 9.8 °F 3.8 °F 1023.6 in WNW 16.7 mph 16.7 mph 66 % 0.0 in 0.0 W/m2 CLR
00:40 9.7 °F 3.7 °F 1023.6 in WNW 22.2 mph 22.2 mph 66 % 0.0 in 0.0 W/m2 CLR
00:45 9.7 °F 3.7 °F 1023.6 in West 22.2 mph 22.2 mph 66 % 0.0 in 0.0 W/m2 CLR
00:50 9.7 °F 3.6 °F 1023.6 in West 24.1 mph 24.1 mph 66 % 0.0 in 0.0 W/m2 CLR
00:55 9.6 °F 3.6 °F 1023.6 in West 22.2 mph 22.2 mph 66 % 0.0 in 0.0 W/m2 CLR
01:00 9.6 °F 3.5 °F 1023.6 in West 22.2 mph 22.2 mph 66 % 0.0 in 0.0 W/m2 CLR
01:05 9.4 °F 3.6 °F 1023.6 in NW 20.4 mph 20.4 mph 67 % 0.0 in 0.0 W/m2 CLR
01:10 9.4 °F 3.6 °F 1023.6 in West 24.1 mph 24.1 mph 67 % 0.0 in 0.0 W/m2 CLR
01:15 9.4 °F 3.6 °F 1023.6 in West 22.2 mph 22.2 mph 67 % 0.0 in 0.0 W/m2 CLR
01:20 9.3 °F 3.5 °F 1023.6 in West 24.1 mph 24.1 mph 67 % 0.0 in 0.0 W/m2 CLR
01:25 9.3 °F 3.5 °F 1023.9 in WSW 20.9 mph 20.9 mph 67 % 0.0 in 0.0 W/m2 CLR
01:30 9.3 °F 3.4 °F 1023.9 in WNW 18.5 mph 18.5 mph 67 % 0.0 in 0.0 W/m2 CLR
01:35 9.1 °F 3.5 °F 1023.9 in WNW 20.4 mph 20.4 mph 68 % 0.0 in 0.0 W/m2 CLR
01:40 9.1 °F 3.5 °F 1023.9 in WNW 31.5 mph 31.5 mph 68 % 0.0 in 0.0 W/m2 CLR
01:45 9.1 °F 3.5 °F 1023.9 in WNW 29.6 mph 29.6 mph 68 % 0.0 in 0.0 W/m2 CLR
01:50 9.1 °F 3.4 °F 1023.9 in West 25.9 mph 25.9 mph 68 % 0.0 in 0.0 W/m2 CLR
01:55 9.0 °F 3.4 °F 1023.6 in West 18.5 mph 18.5 mph 68 % 0.0 in 0.0 W/m2 CLR
02:00 8.9 °F 3.3 °F 1023.6 in WNW 22.2 mph 22.2 mph 68 % 0.0 in 0.0 W/m2 CLR
02:05 8.9 °F 3.3 °F 1023.9 in West 18.5 mph 18.5 mph 68 % 0.0 in 0.0 W/m2 CLR
02:10 8.9 °F 3.3 °F 1023.6 in West 24.1 mph 24.1 mph 68 % 0.0 in 0.0 W/m2 CLR
02:15 8.8 °F 3.4 °F 1023.6 in West 22.2 mph 22.2 mph 69 % 0.0 in 0.0 W/m2 CLR
02:20 8.8 °F 3.4 °F 1023.6 in West 18.5 mph 18.5 mph 69 % 0.0 in 0.0 W/m2 CLR
02:25 8.7 °F 3.3 °F 1023.6 in West 18.5 mph 18.5 mph 69 % 0.0 in 0.0 W/m2 CLR
02:30 8.6 °F 3.4 °F 1023.6 in West 19.3 mph 19.3 mph 70 % 0.0 in 0.0 W/m2 CLR
02:35 8.6 °F 3.4 °F 1023.6 in WSW 22.2 mph 22.2 mph 70 % 0.0 in 0.0 W/m2 CLR
02:40 8.5 °F 3.3 °F 1023.6 in West 20.9 mph 20.9 mph 70 % 0.0 in 0.0 W/m2 CLR
02:45 8.5 °F 3.3 °F 1023.9 in West 20.4 mph 20.4 mph 70 % 0.0 in 0.0 W/m2 CLR
02:50 8.4 °F 3.2 °F 1023.9 in West 18.5 mph 18.5 mph 70 % 0.0 in 0.0 W/m2 CLR
02:55 8.3 °F 3.4 °F 1023.9 in WSW 18.5 mph 18.5 mph 71 % 0.0 in 0.0 W/m2 CLR
03:00 8.3 °F 3.4 °F 1023.9 in WSW 20.4 mph 20.4 mph 71 % 0.0 in 0.0 W/m2 CLR
03:05 8.2 °F 3.3 °F 1023.9 in WSW 14.8 mph 14.8 mph 71 % 0.0 in 0.0 W/m2 CLR
03:10 8.1 °F 3.4 °F 1023.9 in WSW 13.0 mph 13.0 mph 72 % 0.0 in 0.0 W/m2 CLR
03:15 8.0 °F 3.3 °F 1023.9 in West 20.4 mph 20.4 mph 72 % 0.0 in 0.0 W/m2 CLR
03:20 8.1 °F 3.3 °F 1023.9 in West 20.4 mph 20.4 mph 72 % 0.0 in 0.0 W/m2 CLR
03:25 8.1 °F 3.4 °F 1023.9 in WSW 18.5 mph 18.5 mph 72 % 0.0 in 0.0 W/m2 CLR
03:30 8.1 °F 3.4 °F 1023.9 in West 20.4 mph 20.4 mph 72 % 0.0 in 0.0 W/m2 CLR
03:35 8.2 °F 3.4 °F 1023.6 in West 24.1 mph 24.1 mph 72 % 0.0 in 0.0 W/m2 CLR
03:40 8.2 °F 3.4 °F 1023.6 in West 20.4 mph 20.4 mph 72 % 0.0 in 0.0 W/m2 CLR
03:45 8.2 °F 3.4 °F 1023.6 in West 25.9 mph 25.9 mph 72 % 0.0 in 0.0 W/m2 CLR
03:50 8.1 °F 3.4 °F 1023.6 in West 25.9 mph 25.9 mph 72 % 0.0 in 0.0 W/m2 CLR
03:55 8.1 °F 3.5 °F 1023.6 in West 20.4 mph 20.4 mph 73 % 0.0 in 0.0 W/m2 CLR
04:00 8.0 °F 3.4 °F 1023.6 in West 20.4 mph 20.4 mph 73 % 0.0 in 0.0 W/m2 CLR
04:05 8.0 °F 3.4 °F 1023.6 in West 22.2 mph 22.2 mph 73 % 0.0 in 0.0 W/m2 CLR
04:10 8.0 °F 3.4 °F 1023.6 in SW 20.4 mph 20.4 mph 73 % 0.0 in 0.0 W/m2 CLR
04:15 7.9 °F 3.4 °F 1023.6 in West 18.5 mph 18.5 mph 73 % 0.0 in 0.0 W/m2 CLR
04:20 7.9 °F 3.3 °F 1023.6 in West 18.5 mph 18.5 mph 73 % 0.0 in 0.0 W/m2 CLR
04:25 7.9 °F 3.3 °F 1023.6 in WSW 22.2 mph 22.2 mph 73 % 0.0 in 0.0 W/m2 CLR
04:30 7.8 °F 3.3 °F 1023.6 in West 20.9 mph 20.9 mph 73 % 0.0 in 0.0 W/m2 CLR
04:35 7.9 °F 3.3 °F 1023.6 in WSW 20.4 mph 20.4 mph 73 % 0.0 in 0.0 W/m2 CLR
04:40 8.0 °F 3.4 °F 1023.9 in WSW 18.5 mph 18.5 mph 73 % 0.0 in 0.0 W/m2 CLR
04:46 8.0 °F 3.4 °F 1023.9 in West 18.5 mph 18.5 mph 73 % 0.0 in 0.0 W/m2 CLR
04:51 7.9 °F 3.2 °F 1023.9 in West 16.7 mph 16.7 mph 72 % 0.0 in 0.0 W/m2 CLR
04:56 7.8 °F 3.3 °F 1023.9 in WSW 9.7 mph 10.0 mph 73 % 0.0 in 0.0 W/m2 CLR
05:01 7.7 °F 3.1 °F 1023.9 in WSW 9.7 mph 9.7 mph 73 % 0.0 in 0.0 W/m2 CLR
05:06 7.6 °F 3.2 °F 1023.9 in WSW 13.0 mph 13.0 mph 74 % 0.0 in 0.0 W/m2 CLR
05:11 7.6 °F 3.2 °F 1023.9 in West 3.7 mph 3.7 mph 74 % 0.0 in 0.0 W/m2 CLR
05:16 7.4 °F 3.1 °F 1023.9 in WSW 9.7 mph 9.7 mph 74 % 0.0 in 0.0 W/m2 CLR
05:21 7.4 °F 3.1 °F 1023.9 in WSW 5.6 mph 5.6 mph 74 % 0.0 in 0.0 W/m2 CLR
05:26 7.3 °F 3.2 °F 1023.9 in WSW 14.8 mph 14.8 mph 75 % 0.0 in 0.0 W/m2 CLR
05:31 7.3 °F 3.1 °F 1024.3 in Calm     75 % 0.0 in 0.0 W/m2 CLR
05:36 7.2 °F 3.1 °F 1024.3 in SW 5.6 mph 5.6 mph 75 % 0.0 in 0.0 W/m2 CLR
05:41 7.0 °F 3.1 °F 1024.3 in WSW 5.6 mph 5.6 mph 76 % 0.0 in 0.0 W/m2 CLR
05:46 6.9 °F 3.0 °F 1024.3 in WSW 5.6 mph 5.6 mph 76 % 0.0 in 0.0 W/m2 CLR
05:51 6.9 °F 2.9 °F 1024.3 in WSW 7.4 mph 7.4 mph 76 % 0.0 in 0.0 W/m2 CLR
05:56 6.9 °F 2.9 °F 1024.3 in WSW 5.6 mph 5.6 mph 76 % 0.0 in 0.0 W/m2 CLR
06:01 6.8 °F 2.8 °F 1024.3 in WSW 1.9 mph 1.9 mph 76 % 0.0 in 0.0 W/m2 CLR
06:06 6.7 °F 2.9 °F 1024.3 in WSW 6.4 mph 6.4 mph 77 % 0.0 in 0.0 W/m2 CLR
06:11 6.7 °F 2.9 °F 1024.3 in WSW 9.3 mph 9.3 mph 77 % 0.0 in 0.0 W/m2 CLR
06:16 6.6 °F 2.9 °F 1024.3 in WSW 11.3 mph 11.3 mph 77 % 0.0 in 0.0 W/m2 CLR
06:21 6.6 °F 2.9 °F 1024.3 in WSW 1.9 mph 1.9 mph 77 % 0.0 in 0.0 W/m2 CLR
06:26 6.6 °F 2.8 °F 1024.3 in WSW 5.6 mph 5.6 mph 77 % 0.0 in 0.0 W/m2 CLR
06:31 6.5 °F 2.8 °F 1024.3 in WSW 6.4 mph 6.4 mph 77 % 0.0 in 0.0 W/m2 CLR
06:36 6.4 °F 2.9 °F 1024.6 in WSW 11.1 mph 11.1 mph 78 % 0.0 in 0.0 W/m2 CLR
06:41 6.4 °F 2.8 °F 1024.6 in WSW 9.3 mph 9.3 mph 78 % 0.0 in 0.0 W/m2 CLR
06:46 6.4 °F 2.9 °F 1024.6 in SW 9.3 mph 9.3 mph 78 % 0.0 in 0.0 W/m2 CLR
06:51 6.3 °F 2.8 °F 1024.6 in Calm     78 % 0.0 in 0.0 W/m2 CLR
06:56 6.3 °F 2.7 °F 1024.6 in Calm     78 % 0.0 in 0.0 W/m2 CLR
07:01 6.3 °F 2.7 °F 1024.6 in WSW 9.3 mph 9.3 mph 78 % 0.0 in 0.0 W/m2 CLR
07:06 6.3 °F 2.7 °F 1024.6 in WSW 5.6 mph 5.6 mph 78 % 0.0 in 0.0 W/m2 CLR
07:11 6.2 °F 2.7 °F 1024.6 in WSW 5.6 mph 5.6 mph 78 % 0.0 in 0.0 W/m2 CLR
07:16 6.2 °F 2.7 °F 1024.6 in WSW 5.6 mph 5.6 mph 78 % 0.0 in 0.0 W/m2 CLR
07:21 6.2 °F 2.7 °F 1024.9 in WSW 7.4 mph 7.4 mph 78 % 0.0 in 0.0 W/m2 CLR
07:26 6.3 °F 2.7 °F 1024.9 in WSW 11.3 mph 11.3 mph 78 % 0.0 in 0.0 W/m2 CLR
07:31 6.3 °F 2.7 °F 1024.9 in WSW 14.8 mph 14.8 mph 78 % 0.0 in 0.0 W/m2 OVC
07:32 6.3 °F 2.8 °F 1024.9 in WSW 12.9 mph 12.9 mph 78 % 0.0 in 0.0 W/m2 OVC
07:37 6.3 °F 2.8 °F 1024.9 in WSW 13.0 mph 13.0 mph 78 % 0.0 in 0.0 W/m2 OVC
07:42 6.3 °F 2.8 °F 1024.9 in WSW 13.0 mph 13.0 mph 78 % 0.0 in 5.0 W/m2 OVC
07:47 6.3 °F 2.7 °F 1024.9 in WSW 12.9 mph 12.9 mph 78 % 0.0 in 7.0 W/m2 BKN
07:52 6.2 °F 2.7 °F 1024.9 in SW 1.9 mph   78 % 0.0 in 11.0 W/m2 BKN
07:57 6.2 °F 2.8 °F 1024.9 in Calm     79 % 0.0 in 12.0 W/m2 BKN
08:02 6.1 °F 2.7 °F 1025.3 in Calm     79 % 0.0 in 14.0 W/m2 BKN
08:07 6.1 °F 2.7 °F 1024.9 in Calm   0.2 mph 79 % 0.0 in 18.0 W/m2 BKN
08:12 6.1 °F 2.7 °F 1024.9 in SW 5.6 mph 5.6 mph 79 % 0.0 in 25.0 W/m2 BKN
08:17 6.3 °F 2.9 °F 1024.9 in SW 5.6 mph 5.6 mph 79 % 0.0 in 32.0 W/m2 BKN
08:22 6.4 °F 2.9 °F 1025.3 in SW 3.7 mph 3.7 mph 78 % 0.0 in 40.0 W/m2 BKN
08:27 6.6 °F 3.2 °F 1025.3 in Calm     79 % 0.0 in 58.0 W/m2 SCT
08:32 6.7 °F 3.3 °F 1025.3 in Calm     79 % 0.0 in 74.0 W/m2 SCT
08:37 6.8 °F 3.3 °F 1025.3 in Calm     78 % 0.0 in 79.0 W/m2 FEW
08:42 6.9 °F 3.3 °F 1025.3 in Calm     78 % 0.0 in 46.0 W/m2 FEW
08:47 7.1 °F 3.6 °F 1025.3 in Calm     78 % 0.0 in 30.0 W/m2 SCT
08:52 7.4 °F 3.6 °F 1025.3 in Calm     77 % 0.0 in 32.0 W/m2 BKN
08:57 7.7 °F 3.9 °F 1025.6 in SW 3.2 mph 3.2 mph 77 % 0.0 in 165.0 W/m2 BKN
09:02 8.0 °F 4.0 °F 1025.6 in SSW 5.6 mph 5.6 mph 76 % 0.0 in 183.0 W/m2 FEW
09:07 8.3 °F 4.2 °F 1025.3 in WSW 1.9 mph 1.9 mph 75 % 0.0 in 200.0 W/m2 CLR
09:12 8.6 °F 4.1 °F 1025.3 in West 11.1 mph 11.1 mph 73 % 0.0 in 220.0 W/m2 CLR
09:17 8.9 °F 4.1 °F 1025.3 in SW 5.6 mph 5.6 mph 72 % 0.0 in 241.0 W/m2 CLR
09:22 9.1 °F 4.1 °F 1025.3 in West 9.3 mph 9.3 mph 71 % 0.0 in 257.0 W/m2 CLR
09:27 9.3 °F 4.1 °F 1025.6 in WSW 7.4 mph 7.4 mph 70 % 0.0 in 272.0 W/m2 CLR
09:32 9.5 °F 4.1 °F 1025.6 in WSW 18.5 mph 18.5 mph 69 % 0.0 in 290.0 W/m2 CLR
09:37 9.6 °F 4.2 °F 1025.3 in WSW 9.3 mph 9.3 mph 69 % 0.0 in 309.0 W/m2 CLR
09:42 9.8 °F 4.3 °F 1025.3 in West 7.4 mph 7.4 mph 69 % 0.0 in 325.0 W/m2 CLR
09:47 9.8 °F 4.2 °F 1025.3 in WNW 22.2 mph 22.2 mph 68 % 0.0 in 341.0 W/m2 CLR
09:52 9.9 °F 4.3 °F 1025.3 in WNW 22.5 mph 22.5 mph 68 % 0.0 in 357.0 W/m2 CLR
09:57 10.0 °F 4.3 °F 1025.3 in West 13.0 mph 13.0 mph 68 % 0.0 in 376.0 W/m2 CLR
10:02 10.1 °F 4.3 °F 1025.3 in NW 22.2 mph 22.2 mph 67 % 0.0 in 392.0 W/m2 CLR
10:07 10.1 °F 4.4 °F 1025.3 in NW 20.4 mph 20.4 mph 68 % 0.0 in 408.0 W/m2 CLR
10:12 10.2 °F 4.6 °F 1025.6 in West 18.5 mph 18.5 mph 68 % 0.0 in 422.0 W/m2 CLR
10:17 10.4 °F 4.5 °F 1025.3 in West 16.7 mph 16.7 mph 67 % 0.0 in 441.0 W/m2 CLR
10:22 10.4 °F 4.3 °F 1025.3 in West 18.5 mph 18.5 mph 66 % 0.0 in 455.0 W/m2 CLR
10:27 10.6 °F 4.9 °F 1025.3 in NW 20.9 mph 20.9 mph 68 % 0.0 in 471.0 W/m2 CLR
10:32 10.7 °F 4.8 °F 1025.3 in NW 20.4 mph 20.4 mph 67 % 0.0 in 485.0 W/m2 CLR
10:37 10.7 °F 4.6 °F 1025.3 in WNW 18.5 mph 18.5 mph 66 % 0.0 in 503.0 W/m2 CLR
10:42 10.7 °F 4.8 °F 1025.6 in NNW 20.4 mph 20.4 mph 67 % 0.0 in 517.0 W/m2 CLR
10:47 11.1 °F 5.4 °F 1025.6 in WNW 18.5 mph 18.5 mph 68 % 0.0 in 531.0 W/m2 CLR
10:52 11.3 °F 5.2 °F 1025.6 in West 18.5 mph 18.5 mph 66 % 0.0 in 545.0 W/m2 CLR
10:57 11.2 °F 4.8 °F 1025.3 in West 22.2 mph 22.2 mph 65 % 0.0 in 557.0 W/m2 CLR
11:02 11.2 °F 5.1 °F 1025.6 in WNW 18.5 mph 18.5 mph 66 % 0.0 in 573.0 W/m2 CLR
11:07 11.4 °F 4.9 °F 1025.6 in NW 14.8 mph 14.8 mph 64 % 0.0 in 585.0 W/m2 CLR
11:12 11.7 °F 5.1 °F 1025.3 in West 18.5 mph 18.5 mph 64 % 0.0 in 599.0 W/m2 CLR
11:17 11.8 °F 4.9 °F 1025.3 in West 18.5 mph 18.5 mph 63 % 0.0 in 612.0 W/m2 CLR
11:22 11.8 °F 4.9 °F 1025.3 in NW 18.5 mph 18.5 mph 63 % 0.0 in 626.0 W/m2 CLR
11:27 11.9 °F 5.3 °F 1025.3 in WNW 20.4 mph 20.4 mph 64 % 0.0 in 636.0 W/m2 CLR
11:32 12.0 °F 5.2 °F 1025.3 in NW 14.8 mph 14.8 mph 63 % 0.0 in 649.0 W/m2 CLR
11:37 12.1 °F 4.8 °F 1025.3 in West 20.4 mph 20.4 mph 61 % 0.0 in 661.0 W/m2 CLR
11:42 12.2 °F 5.4 °F 1025.3 in WNW 12.9 mph 12.9 mph 63 % 0.0 in 671.0 W/m2 CLR
11:47 12.4 °F 5.6 °F 1025.3 in WNW 18.5 mph 18.5 mph 63 % 0.0 in 682.0 W/m2 CLR
11:52 12.7 °F 5.4 °F 1025.3 in NNW 14.8 mph 14.8 mph 61 % 0.0 in 693.0 W/m2 CLR
11:57 12.9 °F 5.3 °F 1025.3 in SW 14.8 mph 14.8 mph 60 % 0.0 in 701.0 W/m2 CLR
12:02 12.9 °F 5.3 °F 1024.9 in WSW 5.6 mph 5.6 mph 60 % 0.0 in 707.0 W/m2 CLR
12:08 13.3 °F 5.9 °F 1024.9 in WNW 16.1 mph 16.1 mph 61 % 0.0 in 724.0 W/m2 CLR
12:13 13.3 °F 5.0 °F 1024.9 in WNW 18.5 mph 18.5 mph 57 % 0.0 in 731.0 W/m2 CLR
12:18 13.3 °F 5.5 °F 1024.9 in NW 20.4 mph 20.4 mph 59 % 0.0 in 740.0 W/m2 CLR
12:23 13.4 °F 5.6 °F 1024.9 in NW 22.5 mph 22.5 mph 59 % 0.0 in 749.0 W/m2 CLR
12:28 13.6 °F 5.4 °F 1024.9 in WNW 18.5 mph 18.5 mph 58 % 0.0 in 759.0 W/m2 CLR
12:33 13.6 °F 5.4 °F 1024.6 in NW 13.0 mph 13.0 mph 58 % 0.0 in 766.0 W/m2 CLR
12:38 13.9 °F 5.2 °F 1024.6 in NW 13.0 mph 13.0 mph 56 % 0.0 in 773.0 W/m2 CLR
12:43 14.1 °F 5.4 °F 1024.6 in NNW 17.7 mph 17.7 mph 56 % 0.0 in 780.0 W/m2 CLR
12:48 14.2 °F 5.8 °F 1024.6 in NNW 18.5 mph 18.5 mph 57 % 0.0 in 788.0 W/m2 CLR
12:53 14.4 °F 5.7 °F 1024.6 in NW 11.1 mph 11.1 mph 56 % 0.0 in 793.0 W/m2 CLR
12:58 14.6 °F 5.7 °F 1024.6 in NNW 18.5 mph 18.5 mph 55 % 0.0 in 800.0 W/m2 CLR
13:03 14.8 °F 5.8 °F 1024.3 in North 14.8 mph 14.8 mph 55 % 0.0 in 805.0 W/m2 CLR
13:08 14.8 °F 6.1 °F 1024.3 in NW 1.9 mph 1.9 mph 56 % 0.0 in 810.0 W/m2 CLR
13:13 14.8 °F 5.3 °F 1024.3 in NNW 13.0 mph 13.0 mph 53 % 0.0 in 816.0 W/m2 CLR
13:18 15.2 °F 5.9 °F 1024.3 in WNW 3.7 mph   54 % 0.0 in 821.0 W/m2 CLR
13:23 15.3 °F 6.1 °F 1023.9 in WNW 11.1 mph 11.1 mph 54 % 0.0 in 824.0 W/m2 CLR
13:28 15.5 °F 5.1 °F 1023.9 in NW 1.6 mph   50 % 0.0 in 826.0 W/m2 CLR
13:33 15.6 °F 5.5 °F 1023.9 in Calm     51 % 0.0 in 830.0 W/m2 CLR
13:38 15.8 °F 5.7 °F 1023.9 in NW 14.8 mph 14.8 mph 51 % 0.0 in 831.0 W/m2 CLR
13:43 15.9 °F 5.2 °F 1023.9 in Calm     49 % 0.0 in 835.0 W/m2 CLR
13:48 16.2 °F 5.7 °F 1023.9 in Calm     50 % 0.0 in 835.0 W/m2 CLR
13:53 16.5 °F 5.7 °F 1023.6 in NW 16.7 mph 16.7 mph 49 % 0.0 in 840.0 W/m2 CLR
13:58 16.4 °F 5.1 °F 1023.6 in NW 5.6 mph 5.6 mph 47 % 0.0 in 840.0 W/m2 CLR
14:03 16.3 °F 5.3 °F 1023.6 in Calm     48 % 0.0 in 840.0 W/m2 CLR
14:08 16.5 °F 5.4 °F 1023.6 in WSW 5.6 mph 5.6 mph 48 % 0.0 in 840.0 W/m2 CLR
14:13 16.8 °F 5.1 °F 1023.2 in WNW 3.7 mph 3.7 mph 46 % 0.0 in 842.0 W/m2 CLR
14:18 16.9 °F 4.3 °F 1023.2 in NNE 13.0 mph 13.0 mph 43 % 0.0 in 842.0 W/m2 CLR
14:23 17.1 °F 5.0 °F 1023.2 in Calm   0.2 mph 45 % 0.0 in 838.0 W/m2 CLR
14:28 17.3 °F 4.9 °F 1023.2 in North 1.9 mph 1.9 mph 44 % 0.0 in 838.0 W/m2 CLR
14:33 17.4 °F 5.3 °F 1023.2 in Calm     45 % 0.0 in 835.0 W/m2 CLR
14:38 17.5 °F 5.1 °F 1023.2 in NNW 3.7 mph 3.7 mph 44 % 0.0 in 833.0 W/m2 CLR
14:43 17.6 °F 4.6 °F 1023.2 in NW 11.1 mph 11.1 mph 42 % 0.0 in 831.0 W/m2 CLR
14:48 17.6 °F 4.9 °F 1023.2 in NW 3.2 mph 3.2 mph 43 % 0.0 in 826.0 W/m2 CLR
14:53 17.5 °F 4.8 °F 1022.9 in NNE 3.7 mph 3.7 mph 43 % 0.0 in 821.0 W/m2 CLR
14:58 17.4 °F 5.4 °F 1022.9 in NW 5.6 mph 5.6 mph 45 % 0.0 in 817.0 W/m2 CLR
15:03 17.5 °F 5.1 °F 1022.9 in West 3.7 mph 3.7 mph 44 % 0.0 in 812.0 W/m2 CLR
15:08 17.9 °F 5.5 °F 1022.9 in WNW 14.5 mph 14.5 mph 44 % 0.0 in 809.0 W/m2 CLR
15:09 18.0 °F 5.6 °F 1022.9 in WNW 18.5 mph 18.5 mph 44 % 0.0 in 809.0 W/m2 CLR
15:14 18.0 °F 4.9 °F 1022.9 in Calm     42 % 0.0 in 802.0 W/m2 CLR
15:19 18.3 °F 6.1 °F 1022.9 in North 3.7 mph 3.7 mph 45 % 0.0 in 793.0 W/m2 CLR
15:24 18.5 °F 5.7 °F 1022.6 in North 14.8 mph 14.8 mph 43 % 0.0 in 793.0 W/m2 CLR
15:29 18.3 °F 5.8 °F 1022.6 in Calm     44 % 0.0 in 780.0 W/m2 CLR
15:34 18.4 °F 5.9 °F 1022.6 in NNW 1.6 mph   44 % 0.0 in 773.0 W/m2 CLR
15:39 18.6 °F 5.8 °F 1022.6 in NNE 3.7 mph 3.7 mph 43 % 0.0 in 768.0 W/m2 CLR
15:44 18.8 °F 6.6 °F 1022.6 in Calm     45 % 0.0 in 763.0 W/m2 CLR
15:49 18.9 °F 5.7 °F 1022.6 in WNW 25.9 mph 25.9 mph 42 % 0.0 in 756.0 W/m2 CLR
15:54 18.9 °F 6.4 °F 1022.6 in North 5.6 mph 5.6 mph 44 % 0.0 in 744.0 W/m2 CLR
15:59 18.7 °F 5.2 °F 1022.2 in NNW 14.8 mph 14.8 mph 41 % 0.0 in 733.0 W/m2 CLR
16:04 18.6 °F 5.7 °F 1022.2 in ENE 1.9 mph 1.9 mph 43 % 0.0 in 726.0 W/m2 CLR
16:09 18.6 °F 5.8 °F 1022.2 in NW 16.7 mph 16.7 mph 43 % 0.0 in 714.0 W/m2 CLR
16:14 18.7 °F 5.2 °F 1022.2 in NE 9.3 mph 9.3 mph 41 % 0.0 in 707.0 W/m2 CLR
16:19 18.6 °F 5.4 °F 1022.2 in ENE 12.9 mph 12.9 mph 42 % 0.0 in 698.0 W/m2 CLR
16:24 18.8 °F 5.6 °F 1022.2 in NW 11.1 mph 11.1 mph 42 % 0.0 in 687.0 W/m2 CLR
16:29 19.1 °F 5.5 °F 1022.2 in North 14.8 mph 14.8 mph 41 % 0.0 in 673.0 W/m2 SCT
16:34 18.9 °F 5.0 °F 1022.2 in NNE 1.9 mph   40 % 0.0 in 663.0 W/m2 BKN
16:39 19.1 °F 5.8 °F 1022.2 in NNW 3.2 mph 3.2 mph 42 % 0.0 in 652.0 W/m2 OVC
16:44 19.4 °F 5.4 °F 1022.2 in NW 3.7 mph 3.7 mph 40 % 0.0 in 642.0 W/m2 OVC
16:49 19.4 °F 5.1 °F 1021.9 in NW 5.6 mph 5.6 mph 39 % 0.0 in 629.0 W/m2 OVC
16:54 19.4 °F 5.1 °F 1021.9 in Calm     39 % 0.0 in 613.0 W/m2 OVC
16:59 19.5 °F 5.2 °F 1021.9 in NNW 5.6 mph 5.6 mph 39 % 0.0 in 603.0 W/m2 OVC
17:04 19.5 °F 5.6 °F 1021.9 in NNW 9.7 mph 9.7 mph 40 % 0.0 in 591.0 W/m2 OVC
17:09 19.6 °F 5.2 °F 1021.9 in Calm     39 % 0.0 in 575.0 W/m2 OVC
17:14 19.7 °F 5.0 °F 1021.9 in NNE 17.7 mph 17.7 mph 38 % 0.0 in 564.0 W/m2 OVC
17:19 19.6 °F 4.8 °F 1021.9 in NNE 14.8 mph 14.8 mph 38 % 0.0 in 548.0 W/m2 OVC
17:24 19.6 °F 4.4 °F 1021.9 in NNE 1.9 mph 1.9 mph 37 % 0.0 in 536.0 W/m2 OVC
17:29 19.6 °F 4.5 °F 1021.6 in NNW 8.0 mph 8.0 mph 37 % 0.0 in 519.0 W/m2 OVC
17:34 19.7 °F 5.4 °F 1021.6 in North 12.9 mph 12.9 mph 39 % 0.0 in 504.0 W/m2 OVC
17:39 19.7 °F 4.6 °F 1021.6 in NNE 3.2 mph 3.2 mph 37 % 0.0 in 490.0 W/m2 OVC
17:44 19.7 °F 5.0 °F 1021.6 in North 1.9 mph 1.9 mph 38 % 0.0 in 475.0 W/m2 OVC
17:49 19.7 °F 4.6 °F 1021.6 in NE 4.8 mph 4.8 mph 37 % 0.0 in 457.0 W/m2 OVC
17:54 19.8 °F 4.7 °F 1021.6 in NNW 5.6 mph 5.6 mph 37 % 0.0 in 443.0 W/m2 OVC
17:59 19.7 °F 4.2 °F 1021.6 in Calm     36 % 0.0 in 427.0 W/m2 OVC
18:04 19.8 °F 5.1 °F 1021.6 in Calm   0.2 mph 38 % 0.0 in 413.0 W/m2 OVC
18:10 19.9 °F 5.2 °F 1021.6 in North 3.2 mph 3.2 mph 38 % 0.0 in 397.0 W/m2 OVC
18:14 19.8 °F 4.3 °F 1021.6 in North 14.8 mph 14.8 mph 36 % 0.0 in 380.0 W/m2 OVC
18:20 19.7 °F 4.2 °F 1021.6 in NNW 3.7 mph 3.7 mph 36 % 0.0 in 362.0 W/m2 OVC
18:25 19.8 °F 4.3 °F 1021.6 in NNE 3.7 mph 3.7 mph 36 % 0.0 in 350.0 W/m2 OVC
18:30 19.8 °F 4.3 °F 1021.6 in NNE 3.7 mph 3.7 mph 36 % 0.0 in 329.0 W/m2 OVC
18:35 19.9 °F 4.4 °F 1021.6 in NNE 3.7 mph 3.7 mph 36 % 0.0 in 313.0 W/m2 OVC
18:40 19.8 °F 4.3 °F 1021.6 in North 5.6 mph 5.6 mph 36 % 0.0 in 295.0 W/m2 OVC
18:42 19.8 °F 4.3 °F 1021.6 in North 1.9 mph   36 % 0.0 in 290.0 W/m2 OVC
18:47 19.8 °F 4.3 °F 1021.6 in Calm     36 % 0.0 in 272.0 W/m2 OVC
18:52 19.8 °F 3.9 °F 1021.6 in NE 3.2 mph 3.2 mph 35 % 0.0 in 251.0 W/m2 OVC
18:57 19.7 °F 4.2 °F 1021.6 in NNE 3.7 mph 3.7 mph 36 % 0.0 in 234.0 W/m2 OVC
19:02 19.6 °F 3.7 °F 1021.6 in North 5.6 mph 5.6 mph 35 % 0.0 in 214.0 W/m2 OVC
19:07 19.5 °F 4.0 °F 1021.6 in Calm     36 % 0.0 in 192.0 W/m2 OVC
19:12 19.4 °F 3.9 °F 1021.6 in NNW 3.7 mph 3.7 mph 36 % 0.0 in 174.0 W/m2 OVC
19:17 19.4 °F 3.9 °F 1021.6 in Calm     36 % 0.0 in 155.0 W/m2 OVC
19:22 19.4 °F 3.9 °F 1021.6 in North 5.6 mph 5.6 mph 36 % 0.0 in 137.0 W/m2 OVC
19:27 19.3 °F 4.3 °F 1021.9 in Calm     37 % 0.0 in 120.0 W/m2 OVC
19:32 19.3 °F 4.3 °F 1021.9 in Calm     37 % 0.0 in 98.0 W/m2 OVC
19:37 19.3 °F 4.3 °F 1021.9 in Calm     37 % 0.0 in 81.0 W/m2 OVC
19:42 19.3 °F 3.5 °F 1021.9 in Calm     35 % 0.0 in 63.0 W/m2 OVC
19:47 19.1 °F 3.6 °F 1021.9 in Calm     36 % 0.0 in 49.0 W/m2 OVC
19:52 18.9 °F 3.9 °F 1021.9 in Calm     37 % 0.0 in 39.0 W/m2 OVC
19:57 18.8 °F 3.4 °F 1021.9 in Calm     36 % 0.0 in 28.0 W/m2 OVC
20:02 18.5 °F 3.9 °F 1021.9 in Calm     38 % 0.0 in 16.0 W/m2 OVC
20:04 18.4 °F 3.4 °F 1021.9 in Calm     37 % 0.0 in 14.0 W/m2 OVC
20:09 17.9 °F 3.4 °F 1021.9 in Calm     38 % 0.0 in 11.0 W/m2 OVC
20:14 17.5 °F 3.7 °F 1021.9 in Calm     40 % 0.0 in 9.0 W/m2 OVC
20:19 17.2 °F 4.1 °F 1021.9 in Calm     42 % 0.0 in 5.0 W/m2 OVC
20:25 16.7 °F 4.3 °F 1021.9 in Calm     44 % 0.0 in 0.0 W/m2 OVC
20:30 16.1 °F 4.2 °F 1021.9 in Calm     45 % 0.0 in 0.0 W/m2 OVC
20:35 15.6 °F 4.0 °F 1021.9 in Calm     46 % 0.0 in 0.0 W/m2 OVC
20:40 15.2 °F 4.3 °F 1021.9 in Calm     48 % 0.0 in 0.0 W/m2 CLR
20:45 14.9 °F 4.0 °F 1021.9 in Calm     48 % 0.0 in 0.0 W/m2 CLR
20:50 14.7 °F 4.1 °F 1021.9 in Calm     49 % 0.0 in 0.0 W/m2 CLR
20:55 14.7 °F 3.8 °F 1021.9 in Calm     48 % 0.0 in 0.0 W/m2 CLR
21:00 14.7 °F 4.1 °F 1022.2 in Calm     49 % 0.0 in 0.0 W/m2 CLR
21:05 14.6 °F 4.2 °F 1022.2 in Calm     50 % 0.0 in 0.0 W/m2 CLR
21:10 14.3 °F 4.3 °F 1022.2 in Calm     51 % 0.0 in 0.0 W/m2 CLR
21:15 13.8 °F 5.2 °F 1022.2 in Calm     56 % 0.0 in 0.0 W/m2 CLR
21:20 13.2 °F 5.1 °F 1022.2 in Calm     58 % 0.0 in 0.0 W/m2 CLR
21:25 12.7 °F 4.9 °F 1022.2 in Calm     59 % 0.0 in 0.0 W/m2 CLR
21:30 12.4 °F 4.8 °F 1022.2 in Calm     60 % 0.0 in 0.0 W/m2 CLR
21:35 12.1 °F 4.8 °F 1022.2 in Calm     61 % 0.0 in 0.0 W/m2 CLR
21:40 11.9 °F 4.8 °F 1022.6 in Calm     62 % 0.0 in 0.0 W/m2 CLR
21:45 11.6 °F 4.8 °F 1022.6 in Calm     63 % 0.0 in 0.0 W/m2 CLR
21:50 11.3 °F 4.8 °F 1022.6 in Calm     64 % 0.0 in 0.0 W/m2 CLR
21:55 11.1 °F 4.6 °F 1022.6 in Calm     64 % 0.0 in 0.0 W/m2 CLR
22:00 10.9 °F 4.8 °F 1022.6 in Calm     66 % 0.0 in 0.0 W/m2 CLR
22:05 10.7 °F 4.6 °F 1022.6 in Calm     66 % 0.0 in 0.0 W/m2 CLR
22:10 10.4 °F 4.5 °F 1022.6 in Calm     67 % 0.0 in 0.0 W/m2 CLR
22:15 10.1 °F 4.7 °F 1022.9 in Calm     69 % 0.0 in 0.0 W/m2 CLR
22:20 9.9 °F 4.4 °F 1022.9 in Calm     69 % 0.0 in 0.0 W/m2 CLR
22:25 9.7 °F 4.5 °F 1022.9 in Calm     70 % 0.0 in 0.0 W/m2 CLR
22:30 9.6 °F 4.4 °F 1022.9 in Calm     70 % 0.0 in 0.0 W/m2 CLR
22:35 9.5 °F 4.3 °F 1022.9 in Calm     70 % 0.0 in 0.0 W/m2 CLR
22:40 9.4 °F 4.4 °F 1023.2 in Calm     71 % 0.0 in 0.0 W/m2 CLR
22:45 9.3 °F 4.3 °F 1023.2 in Calm     71 % 0.0 in 0.0 W/m2 CLR
22:50 9.3 °F 4.3 °F 1023.2 in Calm     71 % 0.0 in 0.0 W/m2 CLR
22:55 9.2 °F 4.2 °F 1023.2 in Calm     71 % 0.0 in 0.0 W/m2 CLR
23:00 9.0 °F 4.0 °F 1023.2 in Calm     71 % 0.0 in 0.0 W/m2 CLR
23:05 8.8 °F 4.1 °F 1023.2 in Calm     72 % 0.0 in 0.0 W/m2 CLR
23:10 8.7 °F 3.9 °F 1023.2 in Calm     72 % 0.0 in 0.0 W/m2 CLR
23:15 8.6 °F 4.1 °F 1023.2 in Calm     73 % 0.0 in 0.0 W/m2 CLR
23:20 8.4 °F 3.8 °F 1023.2 in Calm     73 % 0.0 in 0.0 W/m2 CLR
23:25 8.4 °F 3.8 °F 1023.2 in Calm     73 % 0.0 in 0.0 W/m2 CLR
23:30 8.3 °F 3.8 °F 1023.6 in Calm     73 % 0.0 in 0.0 W/m2 CLR
23:35 8.2 °F 3.6 °F 1023.6 in Calm     73 % 0.0 in 0.0 W/m2 CLR
23:40 8.1 °F 3.7 °F 1023.6 in Calm     74 % 0.0 in 0.0 W/m2 CLR
23:45 8.0 °F 3.7 °F 1023.6 in Calm     74 % 0.0 in 0.0 W/m2 CLR
23:50 7.9 °F 3.6 °F 1023.6 in Calm     74 % 0.0 in 0.0 W/m2 CLR
23:55 7.8 °F 3.5 °F 1023.6 in Calm     74 % 0.0 in 0.0 W/m2 CLR
23:56 7.8 °F 3.5 °F 1023.6 in Calm     74 % 0.0 in 0.0 W/m2 CLR
Lo Temps de Massalio
Compliments of Weather Underground - 1.25 mb